Nacogdoches, TX

11:00 AM CDT on August 20, 2014 (GMT -0500)
South Side | Change Station
CLOSE
Current Station
Personal Weather Station
Location: Nacogdoches, TX
Elevation: 331 ft
Nearby Weather Stations

Elev 331 ft 31.59 °N, 94.66 °W | Updated 9 seconds ago

Mostly Cloudy
Mostly Cloudy
89.4 °F
Feels Like 105 °F
N
4.5
Wind Variable Wind from SE
Gusts 6.9 mph

Today
High -- | Low -- °F
--% Chance of Precip.
Yesterday
High -- | Low -- °F
Precip. -- in
6:46 AM 7:56 PM
Waning Crescent, 21% visible
Pressure 30.04 in
Visibility 10.0 miles
Clouds Mostly Cloudy 1800 ft
Heat Index 105 °F
Dew Point 79 °F
Humidity 71%
Rainfall 0.00 in
Snow Depth Not available.
UV 4 out of 12
Pollen 8.40 out of 12
Air Quality Not available.
Flu Activity Not available.
METAR KOCH 201555Z AUTO 20006KT 10SM BKN018 29/24 A3004 RMK AO1

More Conditions Fewer Conditions

Pressure 30.04 in
Visibility 10.0 miles
Clouds Mostly Cloudy 1800 ft
Heat Index 105 °F
Dew Point 79 °F
Humidity 71%
Rainfall 0.00 in
Snow Depth Not available.
UV 4 out of 12
Pollen 8.40 out of 12
Air Quality Not available.
Flu Activity Not available.
METAR KOCH 201555Z AUTO 20006KT 10SM BKN018 29/24 A3004 RMK AO1

More Conditions Fewer Conditions

10-Day Weather Forecast

Almanac

Astronomy

Aug. 20, 2014 Rise Set
Actual Time 6:46 AM CDT 7:56 PM CDT
Civil Twilight 6:21 AM CDT 8:21 PM CDT
Nautical Twilight 5:51 AM CDT 8:51 PM CDT
Astronomical Twilight 5:20 AM CDT 9:22 PM CDT
Moon 2:34 AM CDT 4:35 PM CDT
Length of Visible Light 14h 00m
Length of Day
13h 09m
Tomorrow will be 1m 45s shorter.
Waning Crescent, 21% of the Moon is Illuminated
Today
Waning Crescent
Aug 25
New
Sep 2
First Quarter
Sep 8
Full
Sep 15
Last Quarter

Today's Extremes

State Highs State Lows

Community

WunderPhotos

Upload Photos

1,745,677 photos uploaded!

Nearby

Snow Depth

Station Depth Elevation
No new snow has been reported.

Earthquake Activity

City Distance Mag. Time & Date
No recent earthquake activity has been reported nearby.
Minimum magnitude displayed is 2.5.

Coastal Water Temperatures

Place Temperature
No Stations Reporting

Nearby Weather Stations